Time;durP1;ratioP1;P1;durP2;ratioP2;P2;SDS_P1;SDS_P2;PMS_P1;PMS_P2;Temp;Humidity;BMP_temperature;BMP_pressure;BME280_temperature;BME280_humidity;BME280_pressure;Samples;Min_cycle;Max_cycle;Signal;HPM_P1;HPM_P2
2023/12/13 00:00:40;;;;;;;2.03;1.70;;;6.80;99.90;;;;;;5036380;28;20175;-84
2023/12/13 00:03:06;;;;;;;2.07;1.83;;;6.90;99.90;;;;;;5054925;28;20602;-84
2023/12/13 00:05:31;;;;;;;2.00;1.80;;;6.90;99.90;;;;;;5054840;28;20175;-84
2023/12/13 00:07:57;;;;;;;2.73;2.00;;;7.00;99.90;;;;;;5036805;28;20267;-84
2023/12/13 00:10:22;;;;;;;2.33;2.07;;;7.00;99.90;;;;;;5054143;28;20197;-84
2023/12/13 00:12:48;;;;;;;2.50;1.83;;;7.10;99.90;;;;;;5054670;28;20172;-84
2023/12/13 00:15:14;;;;;;;2.20;2.00;;;7.10;99.90;;;;;;5054466;28;20199;-84
2023/12/13 00:17:39;;;;;;;2.87;2.00;;;7.10;99.90;;;;;;5036999;28;20195;-84
2023/12/13 00:20:05;;;;;;;2.70;2.03;;;7.10;99.90;;;;;;5036308;28;20260;-83
2023/12/13 00:22:32;;;;;;;1.87;1.70;;;7.10;99.90;;;;;;5054535;28;20173;-84
2023/12/13 00:24:58;;;;;;;2.67;2.20;;;7.10;99.90;;;;;;5036632;28;20177;-84
2023/12/13 00:27:24;;;;;;;2.27;2.07;;;7.10;99.90;;;;;;5035229;28;20231;-84
2023/12/13 00:29:50;;;;;;;2.57;2.00;;;7.10;99.90;;;;;;5035806;28;20211;-85
2023/12/13 00:32:15;;;;;;;2.67;1.93;;;7.20;99.90;;;;;;5054406;28;20251;-84
2023/12/13 00:34:41;;;;;;;3.03;2.30;;;7.20;99.90;;;;;;5036515;28;20297;-84
2023/12/13 00:37:06;;;;;;;3.03;2.70;;;7.20;99.90;;;;;;5036486;28;20168;-84
2023/12/13 00:39:32;;;;;;;3.43;3.00;;;7.20;99.90;;;;;;5035990;28;20206;-85
2023/12/13 00:41:57;;;;;;;4.47;4.07;;;7.20;99.90;;;;;;5036364;28;20226;-84
2023/12/13 00:44:23;;;;;;;4.73;4.33;;;7.30;99.90;;;;;;5036183;28;20184;-84
2023/12/13 00:46:48;;;;;;;5.47;4.97;;;7.40;99.90;;;;;;5036147;28;20227;-84
2023/12/13 00:49:14;;;;;;;5.17;4.67;;;7.30;99.90;;;;;;5035846;28;20191;-83
2023/12/13 00:51:40;;;;;;;6.03;5.43;;;7.30;99.90;;;;;;5053339;28;20191;-84
2023/12/13 00:54:05;;;;;;;6.73;5.77;;;7.30;99.90;;;;;;5053850;28;20196;-84
2023/12/13 00:56:31;;;;;;;6.07;5.47;;;7.30;99.90;;;;;;5035963;28;20168;-84
2023/12/13 00:58:57;;;;;;;6.23;5.30;;;7.20;99.90;;;;;;5035719;28;20700;-82
2023/12/13 01:01:24;;;;;;;5.83;5.27;;;7.20;99.90;;;;;;5053651;28;20212;-84
2023/12/13 01:03:49;;;;;;;6.00;5.40;;;7.20;99.90;;;;;;5035836;28;20179;-84
2023/12/13 01:06:15;;;;;;;5.90;5.27;;;7.20;99.90;;;;;;5053681;28;20235;-84
2023/12/13 01:08:40;;;;;;;5.77;5.17;;;7.20;99.90;;;;;;5053425;28;20251;-84
2023/12/13 01:11:10;;;;;;;5.60;4.53;;;7.20;99.90;;;;;;5035371;28;20273;-84
2023/12/13 01:13:36;;;;;;;6.00;4.70;;;7.30;99.90;;;;;;5053492;28;20186;-84
2023/12/13 01:16:02;;;;;;;5.27;4.33;;;7.30;99.90;;;;;;5035687;28;20210;-84
2023/12/13 01:18:28;;;;;;;5.20;4.57;;;7.30;99.90;;;;;;5035457;28;20196;-84
2023/12/13 01:20:53;;;;;;;5.13;4.37;;;7.30;99.90;;;;;;5052915;28;20179;-84
2023/12/13 01:23:19;;;;;;;5.17;4.07;;;7.30;99.90;;;;;;5035575;28;20185;-84
2023/12/13 01:25:44;;;;;;;5.30;4.27;;;7.20;99.90;;;;;;5035466;28;20184;-84
2023/12/13 01:28:10;;;;;;;5.20;4.20;;;7.30;99.90;;;;;;5035125;28;20187;-84
2023/12/13 01:30:35;;;;;;;5.07;3.70;;;7.30;99.90;;;;;;5034943;28;20179;-84
2023/12/13 01:33:01;;;;;;;4.47;3.83;;;7.20;99.90;;;;;;5035320;28;20189;-84
2023/12/13 01:35:26;;;;;;;4.10;3.33;;;7.30;99.90;;;;;;5052894;28;20240;-84
2023/12/13 01:37:52;;;;;;;5.00;3.30;;;7.30;99.90;;;;;;5034933;28;20257;-84
2023/12/13 01:40:18;;;;;;;4.70;3.20;;;7.30;99.90;;;;;;5052270;28;20194;-85
2023/12/13 01:42:43;;;;;;;5.43;3.60;;;7.30;99.90;;;;;;5052438;28;20271;-85
2023/12/13 01:45:09;;;;;;;4.60;3.70;;;7.30;99.90;;;;;;5034983;28;20229;-84
2023/12/13 01:47:36;;;;;;;3.93;3.30;;;7.30;99.90;;;;;;5035085;28;20179;-84
2023/12/13 01:50:02;;;;;;;4.57;3.50;;;7.40;99.90;;;;;;5052232;28;20285;-84
2023/12/13 01:52:28;;;;;;;3.90;3.50;;;7.40;99.90;;;;;;5035133;28;20184;-84
2023/12/13 01:54:54;;;;;;;4.30;3.90;;;7.40;99.90;;;;;;5034831;28;20196;-84
2023/12/13 01:57:20;;;;;;;4.03;3.50;;;7.40;99.90;;;;;;5034607;28;20191;-84
2023/12/13 01:59:46;;;;;;;3.97;3.57;;;7.40;99.90;;;;;;5052086;28;20200;-84
2023/12/13 02:02:12;;;;;;;4.17;3.27;;;7.50;99.90;;;;;;5035158;28;20181;-84
2023/12/13 02:04:38;;;;;;;4.90;3.50;;;7.50;99.90;;;;;;5034969;28;20214;-84
2023/12/13 02:07:04;;;;;;;4.43;3.40;;;7.50;99.90;;;;;;5034633;28;20180;-84
2023/12/13 02:09:30;;;;;;;4.37;3.67;;;7.50;99.90;;;;;;5034029;28;20201;-84
2023/12/13 02:11:56;;;;;;;4.37;3.50;;;7.50;99.90;;;;;;5034518;28;20185;-84
2023/12/13 02:14:22;;;;;;;4.47;3.50;;;7.50;99.90;;;;;;5034641;28;20266;-84
2023/12/13 02:17:03;;;;;;;6.20;4.10;;;7.50;99.90;;;;;;5130490;27;20484;-84
2023/12/13 02:19:29;;;;;;;6.30;4.20;;;7.50;99.90;;;;;;5128790;28;20758;-83
2023/12/13 02:21:54;;;;;;;6.50;4.40;;;7.50;99.90;;;;;;5129262;27;20174;-83
2023/12/13 02:24:23;;;;;;;5.60;4.47;;;7.60;99.90;;;;;;5130234;27;20547;-84
2023/12/13 02:26:50;;;;;;;6.00;4.67;;;7.50;99.90;;;;;;5130251;27;20169;-83
2023/12/13 02:29:16;;;;;;;7.07;4.77;;;7.60;99.90;;;;;;5150665;22;20225;-84
2023/12/13 02:31:43;;;;;;;4.77;3.80;;;7.60;99.90;;;;;;5031255;28;20173;-85
2023/12/13 02:34:11;;;;;;;5.50;4.90;;;7.60;99.90;;;;;;5013434;28;20174;-86
2023/12/13 02:36:37;;;;;;;5.90;4.50;;;7.60;99.90;;;;;;5013441;28;20256;-84
2023/12/13 02:39:04;;;;;;;5.03;4.50;;;7.60;99.90;;;;;;5030685;28;20189;-84
2023/12/13 02:41:32;;;;;;;7.20;4.90;;;7.60;99.90;;;;;;5031015;28;20184;-85
2023/12/13 02:43:57;;;;;;;6.23;4.57;;;7.60;99.90;;;;;;5013465;28;20208;-85
2023/12/13 02:46:23;;;;;;;6.77;4.20;;;7.70;99.90;;;;;;5030882;28;20178;-85
2023/12/13 02:48:48;;;;;;;6.40;4.77;;;7.70;99.90;;;;;;5013096;28;20283;-84
2023/12/13 02:51:14;;;;;;;6.27;4.57;;;7.70;99.90;;;;;;5030095;28;20201;-85
2023/12/13 02:53:40;;;;;;;5.40;4.50;;;7.80;99.90;;;;;;5013182;28;20170;-85
2023/12/13 02:56:06;;;;;;;6.30;4.30;;;7.80;99.90;;;;;;5012698;28;20206;-85
2023/12/13 02:58:32;;;;;;;7.23;4.60;;;7.80;99.90;;;;;;5012877;28;20173;-85
2023/12/13 03:00:57;;;;;;;7.77;4.30;;;7.80;99.90;;;;;;5030179;28;20175;-85
2023/12/13 03:03:24;;;;;;;6.87;4.77;;;7.80;99.90;;;;;;5013317;28;20209;-84
2023/12/13 03:05:49;;;;;;;6.77;4.13;;;7.80;99.90;;;;;;5030642;28;20208;-85
2023/12/13 03:08:16;;;;;;;6.43;4.07;;;7.80;99.90;;;;;;5012662;28;20268;-85
2023/12/13 03:10:42;;;;;;;7.50;4.40;;;7.80;99.90;;;;;;5029348;28;20212;-84
2023/12/13 03:13:08;;;;;;;7.33;4.40;;;7.80;99.90;;;;;;5030588;28;20179;-84
2023/12/13 03:15:33;;;;;;;5.83;4.67;;;7.80;99.90;;;;;;5012280;28;20206;-85
2023/12/13 03:17:59;;;;;;;6.37;4.90;;;7.80;99.90;;;;;;5030537;28;20184;-85
2023/12/13 03:20:24;;;;;;;5.80;4.40;;;7.70;99.90;;;;;;5012118;28;20704;-84
2023/12/13 03:22:50;;;;;;;6.13;4.00;;;7.70;99.90;;;;;;5029828;28;20727;-85
2023/12/13 03:25:16;;;;;;;6.67;3.97;;;7.70;99.90;;;;;;5012836;28;20681;-84
2023/12/13 03:27:42;;;;;;;5.40;3.80;;;7.70;99.90;;;;;;5020720;28;20186;-85
2023/12/13 03:30:09;;;;;;;5.13;3.57;;;7.70;99.90;;;;;;4998436;28;20221;-85
2023/12/13 03:32:34;;;;;;;3.80;3.30;;;7.60;99.90;;;;;;4999260;28;20182;-84
2023/12/13 03:35:00;;;;;;;4.90;2.90;;;7.60;99.90;;;;;;5016600;28;20194;-84
2023/12/13 03:37:27;;;;;;;3.80;3.00;;;7.60;99.90;;;;;;5016723;28;20190;-85
2023/12/13 03:39:53;;;;;;;3.50;2.60;;;7.60;99.90;;;;;;4998896;28;20194;-85
2023/12/13 03:42:18;;;;;;;5.33;2.40;;;7.60;99.90;;;;;;4998998;28;20185;-85
2023/12/13 03:44:44;;;;;;;3.93;2.70;;;7.50;99.90;;;;;;5016676;28;20171;-84
2023/12/13 03:47:10;;;;;;;3.40;2.63;;;7.50;99.90;;;;;;4999032;28;20263;-85
2023/12/13 03:49:35;;;;;;;3.37;2.23;;;7.50;99.90;;;;;;4998236;28;20287;-87
2023/12/13 03:52:01;;;;;;;2.27;2.00;;;7.50;99.90;;;;;;5016335;28;20175;-85
2023/12/13 03:54:26;;;;;;;3.20;2.03;;;7.50;99.90;;;;;;4999200;28;20193;-85
2023/12/13 03:56:52;;;;;;;3.00;2.30;;;7.40;99.90;;;;;;5016516;28;20570;-85
2023/12/13 03:59:17;;;;;;;3.43;2.13;;;7.40;99.90;;;;;;4998458;28;20248;-84
2023/12/13 04:01:43;;;;;;;3.70;2.20;;;7.40;99.90;;;;;;4998274;28;20182;-85
2023/12/13 04:04:09;;;;;;;3.47;2.50;;;7.40;99.90;;;;;;4998581;28;20231;-84
2023/12/13 04:06:34;;;;;;;3.03;2.30;;;7.40;99.90;;;;;;4998540;28;20189;-84
2023/12/13 04:09:00;;;;;;;3.83;2.40;;;7.40;99.90;;;;;;5016743;28;20202;-85
2023/12/13 04:11:25;;;;;;;4.00;2.23;;;7.40;99.90;;;;;;5016357;28;20189;-84
2023/12/13 04:13:51;;;;;;;2.83;2.00;;;7.30;99.90;;;;;;4998635;28;20635;-85
2023/12/13 04:16:17;;;;;;;3.50;2.20;;;7.30;99.90;;;;;;4998844;28;20213;-85
2023/12/13 04:18:42;;;;;;;4.20;2.20;;;7.30;99.90;;;;;;4998206;28;20198;-85
2023/12/13 04:21:08;;;;;;;4.47;2.43;;;7.30;99.90;;;;;;4998020;28;20178;-85
2023/12/13 04:23:33;;;;;;;3.97;2.43;;;7.20;99.90;;;;;;5015654;28;20265;-84
2023/12/13 04:26:00;;;;;;;2.87;2.50;;;7.20;99.90;;;;;;4998251;28;20181;-85
2023/12/13 04:28:26;;;;;;;3.93;2.53;;;7.20;99.90;;;;;;4998114;28;20208;-86
2023/12/13 04:30:52;;;;;;;5.00;2.80;;;7.20;99.90;;;;;;4997928;28;20187;-84
2023/12/13 04:33:18;;;;;;;4.10;2.67;;;7.30;99.90;;;;;;4998085;28;20179;-84
2023/12/13 04:35:44;;;;;;;3.80;2.63;;;7.30;99.90;;;;;;5016074;28;20202;-83
2023/12/13 04:38:10;;;;;;;4.27;3.10;;;7.30;99.90;;;;;;4997197;28;20203;-84
2023/12/13 04:40:35;;;;;;;5.37;2.97;;;7.30;99.90;;;;;;5014884;28;20202;-84
2023/12/13 04:43:02;;;;;;;6.80;2.60;;;7.30;99.90;;;;;;5015241;28;20175;-85
2023/12/13 04:45:27;;;;;;;5.43;3.30;;;7.40;99.90;;;;;;5015346;28;20181;-85
2023/12/13 04:47:53;;;;;;;4.03;2.90;;;7.40;99.90;;;;;;4997724;28;20248;-86
2023/12/13 04:50:18;;;;;;;4.77;3.37;;;7.40;99.90;;;;;;4997110;28;20297;-84
2023/12/13 04:52:44;;;;;;;5.67;3.37;;;7.40;99.90;;;;;;4997838;28;20186;-84
2023/12/13 04:55:09;;;;;;;8.20;3.50;;;7.50;99.90;;;;;;5015716;28;20201;-85
2023/12/13 04:57:35;;;;;;;6.37;4.00;;;7.50;99.90;;;;;;4997739;28;20270;-86
2023/12/13 05:00:01;;;;;;;5.23;3.70;;;7.50;99.90;;;;;;4996848;28;20220;-85
2023/12/13 05:02:26;;;;;;;7.20;3.80;;;7.50;99.90;;;;;;5015410;28;20202;-85
2023/12/13 05:04:52;;;;;;;4.23;3.37;;;7.50;99.90;;;;;;5014835;28;20177;-85
2023/12/13 05:07:18;;;;;;;5.33;3.40;;;7.50;99.90;;;;;;5015031;28;20261;-85
2023/12/13 05:09:43;;;;;;;6.73;3.80;;;7.50;99.90;;;;;;4996752;28;20710;-85
2023/12/13 05:12:09;;;;;;;5.47;3.43;;;7.60;99.90;;;;;;5015532;28;20438;-85
2023/12/13 05:14:34;;;;;;;5.83;3.47;;;7.60;99.90;;;;;;4997384;28;20224;-84
2023/12/13 05:17:00;;;;;;;6.73;3.30;;;7.60;99.90;;;;;;4997126;28;20217;-85
2023/12/13 05:19:25;;;;;;;5.93;3.40;;;7.60;99.90;;;;;;5014329;28;20194;-85
2023/12/13 05:21:51;;;;;;;8.43;3.90;;;7.60;99.90;;;;;;4997050;28;20178;-85
2023/12/13 05:24:16;;;;;;;9.33;4.00;;;7.60;99.90;;;;;;5014626;28;20182;-85
2023/12/13 05:26:42;;;;;;;5.50;4.20;;;7.50;99.90;;;;;;5015059;28;20207;-86
2023/12/13 05:29:07;;;;;;;7.97;4.67;;;7.60;99.90;;;;;;4996802;28;20221;-85
2023/12/13 05:31:33;;;;;;;8.00;4.10;;;7.50;99.90;;;;;;4996484;28;20181;-84
2023/12/13 05:33:59;;;;;;;7.87;4.23;;;7.60;99.90;;;;;;4996739;28;20185;-85
2023/12/13 05:36:25;;;;;;;7.87;4.23;;;7.50;99.90;;;;;;4997179;28;20218;-85
2023/12/13 05:38:50;;;;;;;7.53;4.20;;;7.50;99.90;;;;;;4995615;28;20192;-89
2023/12/13 05:41:16;;;;;;;8.93;4.50;;;7.50;99.90;;;;;;4995182;28;20213;-87
2023/12/13 05:43:41;;;;;;;7.37;4.40;;;7.50;99.90;;;;;;5013127;28;20174;-87
2023/12/13 05:46:07;;;;;;;9.80;4.70;;;7.60;99.90;;;;;;5013047;28;20227;-87
2023/12/13 05:48:33;;;;;;;6.03;4.17;;;7.60;99.90;;;;;;4995370;28;20249;-87
2023/12/13 05:50:59;;;;;;;7.00;3.83;;;7.70;99.90;;;;;;4994863;28;20263;-87
2023/12/13 05:53:25;;;;;;;7.87;3.87;;;7.60;99.90;;;;;;4995599;28;20252;-88
2023/12/13 05:55:50;;;;;;;9.67;3.40;;;7.50;99.90;;;;;;4995243;28;20299;-87
2023/12/13 05:58:16;;;;;;;8.73;4.00;;;7.50;99.90;;;;;;5013478;28;20185;-86
2023/12/13 06:00:41;;;;;;;7.43;3.53;;;7.60;99.90;;;;;;5012354;28;20678;-87
2023/12/13 06:03:07;;;;;;;5.93;3.23;;;7.60;99.90;;;;;;4995090;28;20180;-87
2023/12/13 06:05:33;;;;;;;5.33;3.30;;;7.60;99.90;;;;;;4995209;28;20182;-87
2023/12/13 06:07:58;;;;;;;5.93;3.17;;;7.60;99.90;;;;;;4996559;28;20184;-87
2023/12/13 06:10:24;;;;;;;10.03;3.17;;;7.60;99.90;;;;;;4995110;28;20205;-88
2023/12/13 06:12:51;;;;;;;5.40;3.30;;;7.60;99.90;;;;;;4995315;28;20185;-85
2023/12/13 06:15:17;;;;;;;4.33;3.27;;;7.60;99.90;;;;;;4995458;28;20206;-81
2023/12/13 06:17:43;;;;;;;5.27;3.07;;;7.60;99.90;;;;;;5012392;28;20180;-81
2023/12/13 06:20:09;;;;;;;4.77;3.00;;;7.50;99.90;;;;;;4994714;28;20272;-85
2023/12/13 06:22:36;;;;;;;7.40;3.40;;;7.50;99.90;;;;;;4994866;28;20177;-85
2023/12/13 06:25:02;;;;;;;6.30;3.20;;;7.50;99.90;;;;;;4994808;28;20203;-85
2023/12/13 06:27:28;;;;;;;6.80;3.47;;;7.50;99.90;;;;;;4994688;28;20180;-87
2023/12/13 06:29:53;;;;;;;7.93;3.07;;;7.50;99.90;;;;;;4994102;28;20216;-86
2023/12/13 06:32:19;;;;;;;5.47;2.97;;;7.50;99.90;;;;;;4994734;28;20182;-86
2023/12/13 06:34:45;;;;;;;7.00;3.30;;;7.50;99.90;;;;;;4994657;28;20200;-84
2023/12/13 06:37:11;;;;;;;5.87;2.80;;;7.50;99.90;;;;;;4994658;28;20170;-86
2023/12/13 06:39:37;;;;;;;7.07;2.93;;;7.50;99.90;;;;;;4994006;28;20224;-86
2023/12/13 06:42:04;;;;;;;9.67;2.83;;;7.50;99.90;;;;;;5011930;28;20189;-86
2023/12/13 06:44:29;;;;;;;5.13;3.10;;;7.50;99.90;;;;;;4994527;28;20649;-86
2023/12/13 06:46:55;;;;;;;6.50;2.70;;;7.50;99.90;;;;;;4995135;28;20185;-84
2023/12/13 06:49:22;;;;;;;5.67;2.73;;;7.50;99.90;;;;;;4995061;28;20605;-83
2023/12/13 06:51:50;;;;;;;5.63;2.70;;;7.50;99.90;;;;;;5012541;28;20175;-84
2023/12/13 06:54:16;;;;;;;5.63;2.77;;;7.50;99.90;;;;;;4995121;28;20182;-85
2023/12/13 06:56:41;;;;;;;7.13;2.77;;;7.50;99.90;;;;;;4995054;28;20711;-83
2023/12/13 06:59:07;;;;;;;5.53;3.07;;;7.50;99.90;;;;;;5012438;28;20569;-83
2023/12/13 07:01:32;;;;;;;5.47;2.80;;;7.50;99.90;;;;;;4994718;28;20693;-86
2023/12/13 07:03:58;;;;;;;5.80;2.70;;;7.40;99.90;;;;;;4998842;28;20231;-84
2023/12/13 07:06:23;;;;;;;5.93;2.90;;;7.40;99.90;;;;;;5016272;28;20172;-84
2023/12/13 07:08:49;;;;;;;5.67;2.90;;;7.40;99.90;;;;;;5015777;28;20224;-85
2023/12/13 07:11:15;;;;;;;4.20;2.57;;;7.40;99.90;;;;;;4997419;28;20650;-85
2023/12/13 07:13:40;;;;;;;6.37;2.67;;;7.40;99.90;;;;;;5015785;28;20188;-82
2023/12/13 07:16:07;;;;;;;3.73;2.63;;;7.40;99.90;;;;;;5015672;28;20189;-80
2023/12/13 07:18:32;;;;;;;7.60;3.00;;;7.40;99.90;;;;;;4998205;28;20265;-86
2023/12/13 07:20:58;;;;;;;8.40;2.63;;;7.50;99.90;;;;;;4997042;28;20263;-87
2023/12/13 07:23:25;;;;;;;5.20;3.03;;;7.40;99.90;;;;;;4997675;28;20268;-85
2023/12/13 07:25:50;;;;;;;5.00;2.63;;;7.40;99.90;;;;;;5015195;28;20230;-85
2023/12/13 07:28:16;;;;;;;7.93;2.73;;;7.50;99.90;;;;;;5014881;28;20395;-84
2023/12/13 07:30:42;;;;;;;8.17;2.80;;;7.50;99.90;;;;;;4997133;28;20296;-85
2023/12/13 07:33:10;;;;;;;4.70;2.67;;;7.40;99.90;;;;;;4997433;28;20224;-85
2023/12/13 07:35:36;;;;;;;6.00;2.83;;;7.50;99.90;;;;;;4997682;28;20201;-85
2023/12/13 07:38:03;;;;;;;4.73;2.57;;;7.50;99.90;;;;;;4997913;28;20184;-82
2023/12/13 07:40:29;;;;;;;5.57;2.50;;;7.40;99.90;;;;;;4997122;28;20201;-84
2023/12/13 07:42:54;;;;;;;2.60;2.10;;;7.40;99.90;;;;;;5014874;28;20181;-84
2023/12/13 07:45:21;;;;;;;6.47;2.63;;;7.30;99.90;;;;;;4997395;28;20177;-85
2023/12/13 07:47:48;;;;;;;4.00;2.57;;;7.30;99.90;;;;;;4996492;28;21000;-84
2023/12/13 07:50:14;;;;;;;4.17;2.67;;;7.30;99.90;;;;;;5014023;28;20678;-85
2023/12/13 07:52:40;;;;;;;6.70;2.80;;;7.30;99.90;;;;;;4998728;28;20189;-84
2023/12/13 07:55:06;;;;;;;5.73;2.90;;;7.20;99.90;;;;;;5014366;28;20201;-85
2023/12/13 07:57:31;;;;;;;6.97;2.63;;;7.30;99.90;;;;;;4996837;28;20186;-84
2023/12/13 07:59:57;;;;;;;6.37;2.77;;;7.30;99.90;;;;;;5007947;28;20201;-86
2023/12/13 08:02:23;;;;;;;7.17;2.70;;;7.40;99.90;;;;;;4993474;28;20188;-85
2023/12/13 08:04:49;;;;;;;5.53;2.70;;;7.40;99.90;;;;;;5011216;28;20164;-84
2023/12/13 08:07:15;;;;;;;5.30;2.77;;;7.40;99.90;;;;;;4991051;28;20179;-85
2023/12/13 08:09:41;;;;;;;6.93;2.63;;;7.40;99.90;;;;;;5014159;28;20282;-83
2023/12/13 08:12:07;;;;;;;4.10;2.60;;;7.40;99.90;;;;;;4996981;28;20235;-87
2023/12/13 08:14:33;;;;;;;4.83;2.73;;;7.50;99.90;;;;;;5014581;28;20176;-84
2023/12/13 08:17:00;;;;;;;6.33;2.63;;;7.50;99.90;;;;;;5015020;28;20214;-84
2023/12/13 08:19:26;;;;;;;17.73;8.57;;;7.50;99.90;;;;;;5001951;28;20248;-84
2023/12/13 08:21:52;;;;;;;22.63;11.30;;;7.60;99.90;;;;;;5014356;28;20595;-86
2023/12/13 08:24:18;;;;;;;10.80;5.17;;;7.50;99.90;;;;;;4996702;28;20712;-84
2023/12/13 08:26:45;;;;;;;11.53;6.50;;;7.60;99.90;;;;;;5013459;28;20276;-85
2023/12/13 08:29:10;;;;;;;7.43;5.20;;;7.60;99.90;;;;;;5063157;22;20290;-81
2023/12/13 08:31:36;;;;;;;7.27;3.73;;;7.60;99.90;;;;;;5052182;28;20268;-81
2023/12/13 08:34:02;;;;;;;9.47;4.20;;;7.60;99.90;;;;;;5052402;28;20200;-82
2023/12/13 08:36:27;;;;;;;8.87;4.77;;;7.60;99.90;;;;;;5052405;28;20214;-84
2023/12/13 08:38:53;;;;;;;7.80;3.33;;;7.60;99.90;;;;;;5054135;28;20187;-81
2023/12/13 08:41:19;;;;;;;10.47;4.47;;;7.70;99.90;;;;;;5072938;28;20217;-82
2023/12/13 08:43:45;;;;;;;7.17;3.90;;;7.70;99.90;;;;;;5072243;28;20262;-84
2023/12/13 08:46:11;;;;;;;6.30;4.20;;;7.70;99.90;;;;;;5072325;28;20174;-82
2023/12/13 08:48:37;;;;;;;5.97;3.83;;;7.70;99.90;;;;;;5072237;28;20184;-83
2023/12/13 08:51:03;;;;;;;7.10;3.23;;;7.80;99.90;;;;;;5071448;28;20196;-83
2023/12/13 08:53:28;;;;;;;5.20;2.70;;;7.80;99.90;;;;;;5073101;28;20180;-83
2023/12/13 08:55:54;;;;;;;6.93;3.47;;;7.80;99.90;;;;;;5072879;28;20200;-82
2023/12/13 08:58:20;;;;;;;7.73;3.37;;;7.80;99.90;;;;;;5071811;28;20267;-84
2023/12/13 09:00:45;;;;;;;4.47;2.90;;;7.80;99.90;;;;;;5071349;28;20219;-83
2023/12/13 09:03:11;;;;;;;5.67;3.23;;;7.90;99.90;;;;;;5072929;28;20171;-82
2023/12/13 09:05:37;;;;;;;3.90;2.57;;;7.90;99.90;;;;;;5072927;28;20547;-82
2023/12/13 09:08:07;;;;;;;5.27;3.33;;;7.90;99.90;;;;;;5063475;28;20240;-83
2023/12/13 09:10:34;;;;;;;7.73;2.80;;;7.90;99.90;;;;;;5068568;28;20222;-83
2023/12/13 09:13:02;;;;;;;9.23;5.40;;;7.90;99.90;;;;;;5072499;28;20184;-83
2023/12/13 09:15:28;;;;;;;10.17;5.00;;;8.00;99.90;;;;;;5072754;28;20242;-83
2023/12/13 09:17:53;;;;;;;6.77;3.20;;;8.00;99.90;;;;;;5063591;28;20174;-83
2023/12/13 09:20:19;;;;;;;8.13;2.87;;;8.00;99.90;;;;;;5067648;28;20202;-83
2023/12/13 09:22:44;;;;;;;6.53;3.00;;;8.00;99.90;;;;;;5072622;28;20212;-83
2023/12/13 09:25:14;;;;;;;5.50;2.97;;;8.10;99.90;;;;;;5070607;28;20184;-83
2023/12/13 09:27:40;;;;;;;9.23;2.80;;;8.10;99.90;;;;;;5072331;28;20186;-83
2023/12/13 09:30:08;;;;;;;5.43;2.70;;;8.10;99.90;;;;;;5071891;28;20215;-79
2023/12/13 09:32:34;;;;;;;4.20;2.50;;;8.10;99.90;;;;;;5068199;28;20277;-82
2023/12/13 09:35:00;;;;;;;4.13;2.10;;;8.10;99.90;;;;;;5069356;28;20669;-82
2023/12/13 09:37:25;;;;;;;5.33;2.17;;;8.10;99.90;;;;;;5055718;28;20184;-83
2023/12/13 09:39:51;;;;;;;5.37;2.43;;;8.10;99.90;;;;;;5058043;28;20196;-82
2023/12/13 09:42:17;;;;;;;7.70;2.53;;;8.20;99.90;;;;;;5065822;28;20180;-82
2023/12/13 09:44:44;;;;;;;4.93;2.33;;;8.20;99.90;;;;;;5063579;28;20172;-82
2023/12/13 09:47:13;;;;;;;6.10;2.27;;;8.20;99.90;;;;;;5070925;28;20175;-82
2023/12/13 09:49:40;;;;;;;6.70;2.40;;;8.30;99.90;;;;;;5072150;28;20196;-82
2023/12/13 09:52:10;;;;;;;7.97;2.50;;;8.30;99.90;;;;;;5070952;28;20205;-82
2023/12/13 09:54:40;;;;;;;4.70;1.90;;;8.30;99.90;;;;;;5071029;28;20206;-83
2023/12/13 09:57:06;;;;;;;4.07;1.83;;;8.30;99.90;;;;;;5070956;28;20630;-83
2023/12/13 09:59:32;;;;;;;6.63;1.87;;;8.40;99.90;;;;;;5070459;28;20696;-84
2023/12/13 10:01:58;;;;;;;6.60;2.60;;;8.40;99.90;;;;;;5071074;28;20225;-83
2023/12/13 10:04:28;;;;;;;5.20;2.20;;;8.30;99.90;;;;;;5071139;28;20556;-83
2023/12/13 10:06:54;;;;;;;5.57;2.70;;;8.30;99.90;;;;;;5071297;28;20200;-79
2023/12/13 10:09:20;;;;;;;8.00;3.77;;;8.30;99.90;;;;;;5072749;28;20196;-79
2023/12/13 10:11:46;;;;;;;7.67;2.27;;;8.30;99.90;;;;;;5072842;28;20173;-80
2023/12/13 10:14:12;;;;;;;3.73;2.10;;;8.30;99.90;;;;;;5072172;28;20180;-77
2023/12/13 10:16:41;;;;;;;4.07;1.90;;;8.30;99.90;;;;;;5073515;28;20218;-79
2023/12/13 10:19:07;;;;;;;4.90;2.37;;;8.30;99.90;;;;;;5073160;28;20172;-79
2023/12/13 10:21:36;;;;;;;7.63;2.20;;;8.30;99.90;;;;;;5073063;28;20538;-78
2023/12/13 10:24:06;;;;;;;3.63;1.97;;;8.30;99.90;;;;;;5072284;28;20173;-80
2023/12/13 10:26:35;;;;;;;3.70;1.93;;;8.30;99.90;;;;;;5073442;28;20250;-79
2023/12/13 10:29:02;;;;;;;4.50;2.07;;;8.20;99.90;;;;;;5071884;28;20748;-79
2023/12/13 10:31:27;;;;;;;4.83;2.47;;;8.20;99.90;;;;;;5073176;28;20275;-79
2023/12/13 10:33:53;;;;;;;5.20;3.53;;;8.20;99.90;;;;;;5072344;28;20213;-79
2023/12/13 10:36:20;;;;;;;10.67;6.10;;;8.20;99.90;;;;;;5072848;28;20204;-79
2023/12/13 10:38:52;;;;;;;7.10;4.10;;;8.10;99.90;;;;;;5075851;28;20233;-79
2023/12/13 10:41:20;;;;;;;4.63;2.37;;;8.20;99.90;;;;;;5076423;28;20184;-84
2023/12/13 10:43:46;;;;;;;4.63;1.90;;;8.20;99.90;;;;;;5074942;28;20175;-84
2023/12/13 10:46:15;;;;;;;3.90;2.07;;;8.20;99.90;;;;;;5074407;28;20205;-83
2023/12/13 10:48:41;;;;;;;3.93;2.47;;;8.20;99.90;;;;;;5074349;28;20675;-83
2023/12/13 10:51:08;;;;;;;4.60;2.30;;;8.20;99.90;;;;;;5075183;28;20189;-83
2023/12/13 10:53:34;;;;;;;6.80;3.23;;;8.20;99.90;;;;;;5075607;28;20240;-83
2023/12/13 10:56:01;;;;;;;3.73;3.20;;;8.20;99.90;;;;;;5075511;28;20749;-83
2023/12/13 10:58:27;;;;;;;5.13;3.23;;;8.20;99.90;;;;;;5075542;28;20251;-83
2023/12/13 11:00:53;;;;;;;3.27;2.50;;;8.20;99.90;;;;;;5073822;28;20196;-83
2023/12/13 11:03:32;;;;;;;5.53;3.10;;;8.10;99.90;;;;;;5074039;28;20206;-83
2023/12/13 11:06:01;;;;;;;6.97;3.10;;;8.10;99.90;;;;;;5074253;28;20173;-81
2023/12/13 11:08:37;;;;;;;4.83;2.90;;;8.10;99.90;;;;;;5074316;28;20234;-83
2023/12/13 11:11:05;;;;;;;4.87;3.17;;;8.20;99.90;;;;;;5074732;28;20193;-84
2023/12/13 11:13:31;;;;;;;6.23;2.70;;;8.10;99.90;;;;;;5075127;28;20264;-83
2023/12/13 11:15:58;;;;;;;5.27;3.13;;;8.10;99.90;;;;;;5074143;28;20211;-83
2023/12/13 11:18:24;;;;;;;2.77;2.17;;;8.00;99.90;;;;;;5075362;28;20660;-84
2023/12/13 11:20:58;;;;;;;3.70;2.13;;;8.10;99.90;;;;;;5074832;28;20227;-83
2023/12/13 11:23:31;;;;;;;4.00;2.50;;;8.10;99.90;;;;;;5073845;28;20175;-83
2023/12/13 11:25:57;;;;;;;5.43;3.30;;;8.10;99.90;;;;;;5073816;28;20176;-84
2023/12/13 11:28:24;;;;;;;4.00;2.97;;;8.10;99.90;;;;;;5073770;28;20227;-85
2023/12/13 11:30:50;;;;;;;6.00;3.60;;;8.10;99.90;;;;;;5074245;28;20217;-84
2023/12/13 11:33:17;;;;;;;4.77;3.70;;;8.10;99.90;;;;;;5074857;28;20317;-86
2023/12/13 11:35:45;;;;;;;2.50;1.90;;;8.10;99.90;;;;;;5075769;28;20573;-84
2023/12/13 11:38:11;;;;;;;3.27;2.47;;;8.20;99.90;;;;;;5073768;28;20663;-83
2023/12/13 11:40:39;;;;;;;6.93;5.67;;;8.20;99.90;;;;;;5073401;28;20192;-85
2023/12/13 11:43:05;;;;;;;10.57;9.20;;;8.20;99.90;;;;;;5073536;28;20168;-83
2023/12/13 11:45:30;;;;;;;7.27;6.17;;;8.20;99.90;;;;;;5074794;28;20270;-84
2023/12/13 11:47:56;;;;;;;5.93;5.33;;;8.10;99.90;;;;;;5074219;28;20189;-85
2023/12/13 11:50:22;;;;;;;4.07;3.50;;;8.10;99.90;;;;;;5074265;28;20681;-84
2023/12/13 11:52:48;;;;;;;4.80;3.07;;;8.10;99.90;;;;;;5073222;28;20643;-85
2023/12/13 11:55:15;;;;;;;2.17;1.77;;;8.10;99.90;;;;;;5073042;28;20173;-84
2023/12/13 11:57:41;;;;;;;6.03;3.07;;;8.10;99.90;;;;;;5073291;28;20179;-85
2023/12/13 12:00:07;;;;;;;3.03;1.60;;;8.00;99.90;;;;;;5072720;28;20286;-84
2023/12/13 12:02:32;;;;;;;2.17;1.60;;;8.10;99.90;;;;;;5073081;28;20652;-84
2023/12/13 12:05:04;;;;;;;2.60;1.10;;;8.10;99.90;;;;;;5073145;28;20191;-84
2023/12/13 12:07:30;;;;;;;2.43;1.30;;;8.20;99.90;;;;;;5074337;28;20177;-84
2023/12/13 12:09:56;;;;;;;1.80;1.20;;;8.30;99.90;;;;;;5072138;28;20199;-84
2023/12/13 12:12:23;;;;;;;2.07;1.37;;;8.40;99.90;;;;;;5074140;28;20517;-84
2023/12/13 12:14:49;;;;;;;3.27;2.93;;;8.40;99.90;;;;;;5074193;28;20223;-85
2023/12/13 12:17:19;;;;;;;3.93;2.90;;;8.30;99.90;;;;;;5073808;28;20205;-84
2023/12/13 12:19:45;;;;;;;2.63;2.30;;;8.30;99.90;;;;;;5073364;28;20272;-83
2023/12/13 12:22:12;;;;;;;2.53;2.33;;;8.40;99.90;;;;;;5073904;28;20248;-84
2023/12/13 12:24:37;;;;;;;3.07;2.77;;;8.40;99.90;;;;;;5072594;28;20200;-85
2023/12/13 12:27:10;;;;;;;2.00;1.40;;;8.40;99.90;;;;;;5072618;28;20212;-84
2023/12/13 12:29:36;;;;;;;2.00;1.60;;;8.40;99.90;;;;;;5073140;28;20211;-84
2023/12/13 12:32:07;;;;;;;1.50;0.73;;;8.40;99.90;;;;;;5073762;28;20173;-84
2023/12/13 12:34:36;;;;;;;1.07;0.90;;;8.40;99.90;;;;;;5072463;28;20161;-83
2023/12/13 12:37:03;;;;;;;1.40;1.00;;;8.40;99.90;;;;;;5073366;28;20204;-84
2023/12/13 12:39:33;;;;;;;2.23;1.63;;;8.40;99.90;;;;;;5071775;28;20223;-84
2023/12/13 12:41:59;;;;;;;3.10;2.50;;;8.40;99.90;;;;;;5073627;28;20180;-84
2023/12/13 12:44:25;;;;;;;1.47;0.97;;;8.30;99.90;;;;;;5072361;28;20176;-84
2023/12/13 12:46:50;;;;;;;1.83;1.43;;;8.30;99.90;;;;;;5073513;28;20177;-84
2023/12/13 12:49:16;;;;;;;1.53;1.27;;;8.30;99.90;;;;;;5071814;28;20204;-84
2023/12/13 12:51:42;;;;;;;2.10;0.80;;;8.30;99.90;;;;;;5073109;28;20230;-84